createdAt,value
2023-01-31T00:00:31.965Z,0.91
2023-01-31T00:05:09.985Z,0.91
2023-01-31T00:09:27.577Z,0.94
2023-01-31T00:13:45.833Z,0.94
2023-01-31T00:18:03.564Z,0.94
2023-01-31T00:22:21.033Z,0.89
2023-01-31T00:26:38.788Z,0.74
2023-01-31T00:30:58.763Z,0.61
2023-01-31T00:35:16.478Z,0.66
2023-01-31T00:39:33.930Z,0.71
2023-01-31T00:43:52.071Z,0.74
2023-01-31T00:48:09.629Z,0.78
2023-01-31T00:52:28.167Z,0.78
2023-01-31T00:56:46.479Z,0.78
2023-01-31T01:01:24.455Z,0.84
2023-01-31T01:05:42.238Z,0.87
2023-01-31T01:09:59.796Z,0.87
2023-01-31T01:14:17.272Z,0.92
2023-01-31T01:18:36.311Z,0.91
2023-01-31T01:22:53.986Z,0.94
2023-01-31T01:27:13.537Z,0.94
2023-01-31T01:31:32.510Z,0.94
2023-01-31T01:35:50.248Z,0.95
2023-01-31T01:40:09.254Z,0.96
2023-01-31T01:44:52.482Z,0.99
2023-01-31T01:49:23.235Z,0.99
2023-01-31T01:53:43.735Z,1.04
2023-01-31T01:58:11.824Z,1.08
2023-01-31T02:02:30.050Z,1.05
2023-01-31T02:06:48.069Z,1.04
2023-01-31T02:11:31.486Z,1.06
2023-01-31T02:15:49.315Z,1.08
2023-01-31T02:20:52.527Z,1.06
2023-01-31T02:25:43.308Z,1.08
2023-01-31T02:30:57.001Z,1.06
2023-01-31T02:35:30.349Z,1.06
2023-01-31T02:39:54.549Z,1.05
2023-01-31T02:44:51.855Z,1.04
2023-01-31T02:49:42.264Z,1.08
2023-01-31T02:54:21.346Z,1.08
2023-01-31T02:58:42.015Z,1.02
2023-01-31T03:02:59.428Z,1.08
2023-01-31T03:07:27.117Z,1.06
2023-01-31T03:12:21.678Z,1.11
2023-01-31T03:17:25.708Z,1.04
2023-01-31T03:21:49.478Z,0.92
2023-01-31T03:26:08.447Z,0.89
2023-01-31T03:30:48.580Z,0.94
2023-01-31T03:35:08.312Z,0.94
2023-01-31T03:40:00.454Z,0.96
2023-01-31T03:44:58.513Z,0.95
2023-01-31T03:49:17.884Z,0.95
2023-01-31T03:53:46.817Z,0.89
2023-01-31T03:58:07.136Z,0.83
2023-01-31T04:02:32.508Z,0.77
2023-01-31T04:06:50.383Z,0.70
2023-01-31T04:11:13.380Z,0.60
2023-01-31T04:15:31.069Z,0.60
2023-01-31T04:19:48.583Z,0.64
2023-01-31T04:24:06.326Z,0.73
2023-01-31T04:28:23.964Z,0.80
2023-01-31T04:32:41.478Z,0.80
2023-01-31T04:36:59.053Z,0.84
2023-01-31T04:41:16.591Z,0.85
2023-01-31T04:45:34.447Z,0.83
2023-01-31T04:49:51.921Z,0.73
2023-01-31T04:54:09.579Z,0.68
2023-01-31T04:58:27.318Z,0.66
2023-01-31T05:02:45.338Z,0.58
2023-01-31T05:07:02.961Z,0.60
2023-01-31T05:11:21.200Z,0.63
2023-01-31T05:15:40.697Z,0.63
2023-01-31T05:19:58.191Z,0.66
2023-01-31T05:24:15.781Z,0.60
2023-01-31T05:28:33.361Z,0.63
2023-01-31T05:32:51.523Z,0.58
2023-01-31T05:37:09.793Z,0.58
2023-01-31T05:41:27.289Z,0.61
2023-01-31T05:45:45.692Z,0.57
2023-01-31T05:50:04.093Z,0.54
2023-01-31T05:54:21.708Z,0.58
2023-01-31T05:58:39.333Z,0.58
2023-01-31T06:03:00.307Z,0.58
2023-01-31T06:07:18.332Z,0.63
2023-01-31T06:11:35.951Z,0.61
2023-01-31T06:15:53.566Z,0.60
2023-01-31T06:20:11.640Z,0.60
2023-01-31T06:24:29.221Z,0.57
2023-01-31T06:28:46.696Z,0.60
2023-01-31T06:33:04.469Z,0.58
2023-01-31T06:37:21.962Z,0.63
2023-01-31T06:41:39.988Z,0.66
2023-01-31T06:45:57.572Z,0.71
2023-01-31T06:50:15.635Z,0.73
2023-01-31T06:54:33.092Z,0.75
2023-01-31T06:58:51.296Z,0.81
2023-01-31T07:03:08.808Z,0.83
2023-01-31T07:07:26.379Z,0.85
2023-01-31T07:11:44.514Z,0.87
2023-01-31T07:16:02.237Z,0.89
2023-01-31T07:20:20.011Z,0.92
2023-01-31T07:24:37.480Z,0.98
2023-01-31T07:28:55.440Z,1.01
2023-01-31T07:33:12.883Z,1.04
2023-01-31T07:37:31.218Z,1.06
2023-01-31T07:41:49.500Z,1.11
2023-01-31T07:46:11.273Z,1.19
2023-01-31T07:50:28.893Z,1.18
2023-01-31T07:54:46.863Z,1.35
2023-01-31T07:59:04.837Z,1.50
2023-01-31T08:03:35.542Z,1.61
2023-01-31T08:08:10.551Z,1.46
2023-01-31T08:12:28.324Z,1.42
2023-01-31T08:16:45.855Z,1.33
2023-01-31T08:21:03.987Z,1.32
2023-01-31T08:25:22.460Z,1.36
2023-01-31T08:29:40.142Z,1.49
2023-01-31T08:33:58.143Z,1.39
2023-01-31T08:38:16.837Z,1.39
2023-01-31T08:42:34.515Z,1.39
2023-01-31T08:46:51.995Z,1.40
2023-01-31T08:51:14.385Z,1.47
2023-01-31T08:55:35.817Z,1.47
2023-01-31T08:59:53.492Z,1.40
2023-01-31T09:04:11.069Z,1.38
2023-01-31T09:08:30.302Z,1.21
2023-01-31T09:12:48.190Z,1.38
2023-01-31T09:17:08.171Z,1.47
2023-01-31T09:21:26.337Z,1.22
2023-01-31T09:25:47.593Z,1.22
2023-01-31T09:30:08.176Z,1.28
2023-01-31T09:34:25.944Z,1.43
2023-01-31T09:38:43.805Z,1.43
2023-01-31T09:43:04.462Z,1.74
2023-01-31T09:47:29.994Z,1.87
2023-01-31T09:51:55.226Z,2.01
2023-01-31T09:56:50.761Z,2.20
2023-01-31T10:01:32.241Z,2.09
2023-01-31T10:05:57.019Z,2.28
2023-01-31T10:10:37.082Z,2.06
2023-01-31T10:15:01.596Z,2.12
2023-01-31T10:19:26.544Z,2.28
2023-01-31T10:23:48.869Z,2.52
2023-01-31T10:28:13.099Z,2.28
2023-01-31T10:32:45.297Z,2.19
2023-01-31T10:37:16.401Z,2.16
2023-01-31T10:42:12.802Z,2.02
2023-01-31T10:46:30.781Z,2.26
2023-01-31T10:51:26.825Z,2.22
2023-01-31T10:56:03.800Z,1.98
2023-01-31T11:00:27.995Z,1.92
2023-01-31T11:04:46.307Z,1.82
2023-01-31T11:09:03.991Z,1.71
2023-01-31T11:13:22.777Z,1.75
2023-01-31T11:17:43.279Z,2.01
2023-01-31T11:22:02.186Z,1.77
2023-01-31T11:26:31.806Z,1.81
2023-01-31T11:30:53.046Z,1.87
2023-01-31T11:35:13.440Z,1.95
2023-01-31T11:39:38.384Z,1.64
2023-01-31T11:44:17.043Z,1.84
2023-01-31T11:48:44.718Z,1.88
2023-01-31T11:53:13.785Z,1.85
2023-01-31T11:57:35.867Z,1.87
2023-01-31T12:01:57.476Z,1.75
2023-01-31T12:06:57.471Z,1.92
2023-01-31T12:11:27.507Z,2.03
2023-01-31T12:16:02.122Z,2.19
2023-01-31T12:20:43.159Z,2.28
2023-01-31T12:25:42.327Z,2.45
2023-01-31T12:30:29.524Z,2.50
2023-01-31T12:35:13.587Z,2.53
2023-01-31T12:39:51.926Z,2.73
2023-01-31T12:44:36.682Z,2.61
2023-01-31T12:49:21.778Z,2.33
2023-01-31T12:54:09.087Z,2.18
2023-01-31T12:58:49.773Z,2.29
2023-01-31T13:03:26.306Z,2.84
2023-01-31T13:07:50.223Z,2.92
2023-01-31T13:12:27.511Z,2.92
2023-01-31T13:16:49.034Z,3.18
2023-01-31T13:21:09.816Z,5.78
2023-01-31T13:26:08.364Z,7.97
2023-01-31T13:30:44.852Z,7.70
2023-01-31T13:35:37.375Z,8.02
2023-01-31T13:40:10.269Z,5.73
2023-01-31T13:44:27.791Z,5.32
2023-01-31T13:48:59.262Z,4.20
2023-01-31T13:53:24.276Z,3.71
2023-01-31T13:57:47.518Z,3.08
2023-01-31T14:02:17.411Z,2.75
2023-01-31T14:06:53.521Z,2.35
2023-01-31T14:11:14.277Z,2.46
2023-01-31T14:15:49.768Z,2.40
2023-01-31T14:20:28.078Z,2.50
2023-01-31T14:24:53.521Z,2.52
2023-01-31T14:29:19.803Z,2.22
2023-01-31T14:33:37.347Z,2.01
2023-01-31T14:38:10.131Z,1.87
2023-01-31T14:43:08.824Z,1.80
2023-01-31T14:47:48.376Z,1.73
2023-01-31T14:52:14.893Z,1.71
2023-01-31T14:56:55.650Z,1.75
2023-01-31T15:01:19.155Z,1.61
2023-01-31T15:05:36.726Z,1.49
2023-01-31T15:09:55.645Z,1.47
2023-01-31T15:14:38.063Z,1.40
2023-01-31T15:19:21.705Z,1.39
2023-01-31T15:23:43.381Z,1.32
2023-01-31T15:28:02.789Z,1.26
2023-01-31T15:32:28.323Z,1.19
2023-01-31T15:37:18.499Z,1.02
2023-01-31T15:41:44.673Z,0.85
2023-01-31T15:46:30.716Z,0.75
2023-01-31T15:50:55.197Z,0.71
2023-01-31T15:55:17.988Z,0.64
2023-01-31T15:59:35.677Z,0.63
2023-01-31T16:03:57.132Z,0.61
2023-01-31T16:08:33.013Z,0.58
2023-01-31T16:12:53.330Z,0.57
2023-01-31T16:17:12.151Z,0.54
2023-01-31T16:21:43.186Z,0.58
2023-01-31T16:26:11.571Z,0.60
2023-01-31T16:30:30.712Z,0.66
2023-01-31T16:35:00.396Z,0.68
2023-01-31T16:39:35.762Z,0.73
2023-01-31T16:43:53.474Z,0.71
2023-01-31T16:48:38.515Z,0.74
2023-01-31T16:53:20.346Z,0.77
2023-01-31T16:57:38.742Z,0.73
2023-01-31T17:02:05.570Z,0.71
2023-01-31T17:06:23.433Z,0.73
2023-01-31T17:10:41.301Z,0.70
2023-01-31T17:15:02.849Z,0.64
2023-01-31T17:19:21.107Z,0.57
2023-01-31T17:23:40.407Z,0.53
2023-01-31T17:27:58.466Z,0.52
2023-01-31T17:32:19.447Z,0.49
2023-01-31T17:36:37.115Z,0.50
2023-01-31T17:40:54.853Z,0.49
2023-01-31T17:45:19.587Z,0.47
2023-01-31T17:49:37.726Z,0.45
2023-01-31T17:53:55.210Z,0.46
2023-01-31T17:58:14.478Z,0.46
2023-01-31T18:02:32.309Z,0.46
2023-01-31T18:06:51.483Z,0.45
2023-01-31T18:11:15.149Z,0.45
2023-01-31T18:15:33.073Z,0.43
2023-01-31T18:19:50.625Z,0.42
2023-01-31T18:24:10.929Z,0.42
2023-01-31T18:28:28.425Z,0.42
2023-01-31T18:32:46.124Z,0.39
2023-01-31T18:37:10.660Z,0.39
2023-01-31T18:41:28.387Z,0.40
2023-01-31T18:45:46.462Z,0.42
2023-01-31T18:50:04.825Z,0.42
2023-01-31T18:54:22.445Z,0.42
2023-01-31T18:58:41.637Z,0.45
2023-01-31T19:02:59.205Z,0.43
2023-01-31T19:07:17.138Z,0.46
2023-01-31T19:11:35.112Z,0.49
2023-01-31T19:15:52.899Z,0.49
2023-01-31T19:20:11.741Z,0.49
2023-01-31T19:24:29.449Z,0.50
2023-01-31T19:28:48.037Z,0.49
2023-01-31T19:33:07.906Z,0.50
2023-01-31T19:37:25.440Z,0.47
2023-01-31T19:41:43.268Z,0.50
2023-01-31T19:46:01.718Z,0.49
2023-01-31T19:50:22.357Z,0.47
2023-01-31T19:54:41.624Z,0.42
2023-01-31T19:59:00.349Z,0.42
2023-01-31T20:03:18.043Z,0.45
2023-01-31T20:07:37.578Z,0.45
2023-01-31T20:11:55.582Z,0.43
2023-01-31T20:16:14.116Z,0.49
2023-01-31T20:20:31.849Z,0.47
2023-01-31T20:24:49.756Z,0.47
2023-01-31T20:29:09.343Z,0.43
2023-01-31T20:33:27.161Z,0.43
2023-01-31T20:37:44.703Z,0.43
2023-01-31T20:42:02.440Z,0.45
2023-01-31T20:46:20.037Z,0.46
2023-01-31T20:50:37.922Z,0.49
2023-01-31T20:54:55.408Z,0.52
2023-01-31T20:59:13.103Z,0.50
2023-01-31T21:03:30.685Z,0.47
2023-01-31T21:07:48.272Z,0.45
2023-01-31T21:12:06.232Z,0.43
2023-01-31T21:16:24.251Z,0.43
2023-01-31T21:20:42.073Z,0.46
2023-01-31T21:24:59.521Z,0.46
2023-01-31T21:29:17.062Z,0.46
2023-01-31T21:33:35.872Z,0.46
2023-01-31T21:37:53.970Z,0.47
2023-01-31T21:42:19.623Z,0.49
2023-01-31T21:46:37.079Z,0.53
2023-01-31T21:50:55.944Z,0.56
2023-01-31T21:55:13.452Z,0.57
2023-01-31T21:59:32.462Z,0.61
2023-01-31T22:03:52.354Z,0.63
2023-01-31T22:08:09.881Z,0.66
2023-01-31T22:12:27.491Z,0.64
2023-01-31T22:16:44.992Z,0.56
2023-01-31T22:21:17.253Z,0.49
2023-01-31T22:25:37.626Z,0.52
2023-01-31T22:30:00.766Z,0.53
2023-01-31T22:34:21.231Z,0.56
2023-01-31T22:38:39.473Z,0.58
2023-01-31T22:42:57.101Z,0.61
2023-01-31T22:47:14.677Z,0.61
2023-01-31T22:51:32.175Z,0.68
2023-01-31T22:55:49.637Z,0.71
2023-01-31T23:00:09.705Z,0.73
2023-01-31T23:04:27.313Z,0.77
2023-01-31T23:08:45.556Z,0.77
2023-01-31T23:13:03.444Z,0.74
2023-01-31T23:17:39.164Z,0.74
2023-01-31T23:21:56.739Z,0.75
2023-01-31T23:26:14.454Z,0.75
2023-01-31T23:30:32.306Z,0.77
2023-01-31T23:34:50.409Z,0.78
2023-01-31T23:39:09.410Z,0.75
2023-01-31T23:43:26.998Z,0.66
2023-01-31T23:47:44.935Z,0.63
2023-01-31T23:52:02.842Z,0.71
2023-01-31T23:56:20.583Z,0.75
